sensor_id;sensor_type;location;lat;lon;timestamp;temperature;humidity
39969;DHT22;25648;47.808;19.004;2023-02-10T00:32:39;4.30;49.40
39969;DHT22;25648;47.808;19.004;2023-02-10T00:35:07;4.20;48.80
39969;DHT22;25648;47.808;19.004;2023-02-10T00:37:33;4.40;48.60
39969;DHT22;25648;47.808;19.004;2023-02-10T00:39:58;4.50;49.00
39969;DHT22;25648;47.808;19.004;2023-02-10T00:42:24;4.40;49.90
39969;DHT22;25648;47.808;19.004;2023-02-10T00:44:50;4.30;50.10
39969;DHT22;25648;47.808;19.004;2023-02-10T00:47:16;4.10;49.40
39969;DHT22;25648;47.808;19.004;2023-02-10T00:49:42;3.70;48.60
39969;DHT22;25648;47.808;19.004;2023-02-10T00:52:14;3.60;48.90
39969;DHT22;25648;47.808;19.004;2023-02-10T00:54:39;3.30;49.70
39969;DHT22;25648;47.808;19.004;2023-02-10T00:57:05;3.20;50.70
39969;DHT22;25648;47.808;19.004;2023-02-10T00:59:33;3.30;50.50
39969;DHT22;25648;47.808;19.004;2023-02-10T01:01:59;3.50;50.20
39969;DHT22;25648;47.808;19.004;2023-02-10T01:04:35;3.40;50.10
39969;DHT22;25648;47.808;19.004;2023-02-10T01:07:39;3.10;49.80
39969;DHT22;25648;47.808;19.004;2023-02-10T01:10:20;3.10;50.00
39969;DHT22;25648;47.808;19.004;2023-02-10T01:12:46;3.00;50.60
39969;DHT22;25648;47.808;19.004;2023-02-10T01:15:15;3.10;50.70
39969;DHT22;25648;47.808;19.004;2023-02-10T01:17:41;2.80;50.70
39969;DHT22;25648;47.808;19.004;2023-02-10T01:20:07;2.20;52.90
39969;DHT22;25648;47.808;19.004;2023-02-10T01:22:33;2.30;52.30
39969;DHT22;25648;47.808;19.004;2023-02-10T01:24:59;2.60;51.50
39969;DHT22;25648;47.808;19.004;2023-02-10T01:27:25;2.90;50.50
39969;DHT22;25648;47.808;19.004;2023-02-10T01:29:50;3.10;49.80
39969;DHT22;25648;47.808;19.004;2023-02-10T01:32:16;3.00;49.40
39969;DHT22;25648;47.808;19.004;2023-02-10T01:34:42;3.00;49.40
39969;DHT22;25648;47.808;19.004;2023-02-10T01:37:08;3.10;49.50
39969;DHT22;25648;47.808;19.004;2023-02-10T01:39:34;3.00;49.70
39969;DHT22;25648;47.808;19.004;2023-02-10T01:42:00;2.80;50.60
39969;DHT22;25648;47.808;19.004;2023-02-10T01:46:52;3.20;49.90
39969;DHT22;25648;47.808;19.004;2023-02-10T01:49:22;3.20;49.00
39969;DHT22;25648;47.808;19.004;2023-02-10T01:51:56;3.30;48.70
39969;DHT22;25648;47.808;19.004;2023-02-10T01:54:26;3.30;48.90
39969;DHT22;25648;47.808;19.004;2023-02-10T01:56:53;3.30;48.20
39969;DHT22;25648;47.808;19.004;2023-02-10T01:59:21;3.10;48.30
39969;DHT22;25648;47.808;19.004;2023-02-10T02:01:49;2.90;48.70
39969;DHT22;25648;47.808;19.004;2023-02-10T02:04:15;2.80;48.70
39969;DHT22;25648;47.808;19.004;2023-02-10T02:06:41;2.50;49.30
39969;DHT22;25648;47.808;19.004;2023-02-10T02:09:08;2.60;49.70
39969;DHT22;25648;47.808;19.004;2023-02-10T02:33:21;3.20;49.00
39969;DHT22;25648;47.808;19.004;2023-02-10T02:36:04;3.10;48.40
39969;DHT22;25648;47.808;19.004;2023-02-10T02:38:38;2.80;47.70
39969;DHT22;25648;47.808;19.004;2023-02-10T02:41:04;2.60;48.00
39969;DHT22;25648;47.808;19.004;2023-02-10T02:43:30;2.60;48.50
39969;DHT22;25648;47.808;19.004;2023-02-10T02:46:11;2.70;48.60
39969;DHT22;25648;47.808;19.004;2023-02-10T02:56:49;2.60;49.10
39969;DHT22;25648;47.808;19.004;2023-02-10T03:02:04;2.50;48.50
39969;DHT22;25648;47.808;19.004;2023-02-10T03:04:33;2.40;48.80
39969;DHT22;25648;47.808;19.004;2023-02-10T03:07:02;2.60;48.70
39969;DHT22;25648;47.808;19.004;2023-02-10T03:09:31;2.40;48.30
39969;DHT22;25648;47.808;19.004;2023-02-10T03:11:57;2.10;48.50
39969;DHT22;25648;47.808;19.004;2023-02-10T03:14:22;2.30;49.00
39969;DHT22;25648;47.808;19.004;2023-02-10T03:16:48;2.40;48.80
39969;DHT22;25648;47.808;19.004;2023-02-10T03:19:14;2.50;49.30
39969;DHT22;25648;47.808;19.004;2023-02-10T03:21:40;2.50;48.80
39969;DHT22;25648;47.808;19.004;2023-02-10T03:24:06;2.50;48.40
39969;DHT22;25648;47.808;19.004;2023-02-10T03:50:48;1.50;50.10
39969;DHT22;25648;47.808;19.004;2023-02-10T03:56:38;1.30;49.50
39969;DHT22;25648;47.808;19.004;2023-02-10T04:10:01;1.50;47.90
39969;DHT22;25648;47.808;19.004;2023-02-10T04:24:14;1.20;49.30
39969;DHT22;25648;47.808;19.004;2023-02-10T04:26:39;1.80;48.70
39969;DHT22;25648;47.808;19.004;2023-02-10T04:29:05;1.50;48.50
39969;DHT22;25648;47.808;19.004;2023-02-10T04:31:31;1.50;49.30
39969;DHT22;25648;47.808;19.004;2023-02-10T04:33:56;1.50;49.90
39969;DHT22;25648;47.808;19.004;2023-02-10T04:57:12;1.30;50.40
39969;DHT22;25648;47.808;19.004;2023-02-10T04:59:37;1.40;50.80
39969;DHT22;25648;47.808;19.004;2023-02-10T05:02:03;1.60;51.30
39969;DHT22;25648;47.808;19.004;2023-02-10T05:04:29;1.80;51.00
39969;DHT22;25648;47.808;19.004;2023-02-10T05:06:54;1.90;50.50
39969;DHT22;25648;47.808;19.004;2023-02-10T05:09:24;1.80;50.30
39969;DHT22;25648;47.808;19.004;2023-02-10T05:11:49;1.80;50.20
39969;DHT22;25648;47.808;19.004;2023-02-10T05:14:15;1.90;50.00
39969;DHT22;25648;47.808;19.004;2023-02-10T05:16:41;2.00;49.50
39969;DHT22;25648;47.808;19.004;2023-02-10T05:19:07;1.90;49.70
39969;DHT22;25648;47.808;19.004;2023-02-10T05:21:35;1.70;48.70
39969;DHT22;25648;47.808;19.004;2023-02-10T05:24:01;1.40;49.20
39969;DHT22;25648;47.808;19.004;2023-02-10T05:26:27;1.40;50.20
39969;DHT22;25648;47.808;19.004;2023-02-10T05:28:52;1.00;51.50
39969;DHT22;25648;47.808;19.004;2023-02-10T05:31:18;1.00;52.50
39969;DHT22;25648;47.808;19.004;2023-02-10T05:33:44;1.30;52.60
39969;DHT22;25648;47.808;19.004;2023-02-10T05:36:09;1.70;52.10
39969;DHT22;25648;47.808;19.004;2023-02-10T05:38:35;2.00;51.40
39969;DHT22;25648;47.808;19.004;2023-02-10T05:41:01;2.00;51.60
39969;DHT22;25648;47.808;19.004;2023-02-10T05:43:27;1.70;48.50
39969;DHT22;25648;47.808;19.004;2023-02-10T05:45:53;1.40;49.10
39969;DHT22;25648;47.808;19.004;2023-02-10T05:48:18;1.40;49.70
39969;DHT22;25648;47.808;19.004;2023-02-10T05:50:44;1.40;49.20
39969;DHT22;25648;47.808;19.004;2023-02-10T05:53:10;1.30;49.50
39969;DHT22;25648;47.808;19.004;2023-02-10T05:56:20;1.70;49.40
39969;DHT22;25648;47.808;19.004;2023-02-10T05:58:46;1.80;49.40
39969;DHT22;25648;47.808;19.004;2023-02-10T06:01:11;1.70;49.70
39969;DHT22;25648;47.808;19.004;2023-02-10T06:10:39;1.40;49.00
39969;DHT22;25648;47.808;19.004;2023-02-10T06:13:04;1.00;48.70
39969;DHT22;25648;47.808;19.004;2023-02-10T06:15:30;1.10;49.50
39969;DHT22;25648;47.808;19.004;2023-02-10T06:25:38;1.00;50.40
39969;DHT22;25648;47.808;19.004;2023-02-10T06:28:04;1.40;50.50
39969;DHT22;25648;47.808;19.004;2023-02-10T06:30:30;1.70;49.30
39969;DHT22;25648;47.808;19.004;2023-02-10T06:32:56;1.60;49.20
39969;DHT22;25648;47.808;19.004;2023-02-10T06:35:22;1.80;49.40
39969;DHT22;25648;47.808;19.004;2023-02-10T06:37:48;1.70;49.40
39969;DHT22;25648;47.808;19.004;2023-02-10T06:40:13;1.90;49.50
39969;DHT22;25648;47.808;19.004;2023-02-10T06:42:39;1.90;49.10
39969;DHT22;25648;47.808;19.004;2023-02-10T06:45:31;1.80;49.40
39969;DHT22;25648;47.808;19.004;2023-02-10T06:53:11;2.60;49.80
39969;DHT22;25648;47.808;19.004;2023-02-10T07:20:08;3.40;50.40
39969;DHT22;25648;47.808;19.004;2023-02-10T07:39:29;4.40;50.40
39969;DHT22;25648;47.808;19.004;2023-02-10T07:42:33;4.50;50.30
39969;DHT22;25648;47.808;19.004;2023-02-10T07:45:08;4.60;50.30
39969;DHT22;25648;47.808;19.004;2023-02-10T08:27:52;6.00;49.40
39969;DHT22;25648;47.808;19.004;2023-02-10T08:33:47;6.50;49.40
39969;DHT22;25648;47.808;19.004;2023-02-10T08:36:15;6.90;48.70
39969;DHT22;25648;47.808;19.004;2023-02-10T08:38:42;7.10;48.60
39969;DHT22;25648;47.808;19.004;2023-02-10T08:44:15;7.70;47.80
39969;DHT22;25648;47.808;19.004;2023-02-10T08:46:41;8.50;47.50
39969;DHT22;25648;47.808;19.004;2023-02-10T08:49:07;9.80;45.80
39969;DHT22;25648;47.808;19.004;2023-02-10T08:51:32;11.00;44.20
39969;DHT22;25648;47.808;19.004;2023-02-10T08:54:02;12.20;42.50
39969;DHT22;25648;47.808;19.004;2023-02-10T08:56:28;12.90;40.60
39969;DHT22;25648;47.808;19.004;2023-02-10T08:58:54;13.40;40.60
39969;DHT22;25648;47.808;19.004;2023-02-10T09:01:22;13.90;40.40
39969;DHT22;25648;47.808;19.004;2023-02-10T09:03:51;15.00;40.00
39969;DHT22;25648;47.808;19.004;2023-02-10T09:06:27;16.30;38.70
39969;DHT22;25648;47.808;19.004;2023-02-10T09:08:53;16.70;38.00
39969;DHT22;25648;47.808;19.004;2023-02-10T09:11:21;17.90;37.90
39969;DHT22;25648;47.808;19.004;2023-02-10T09:13:49;19.40;36.70
39969;DHT22;25648;47.808;19.004;2023-02-10T09:16:15;19.90;36.00
39969;DHT22;25648;47.808;19.004;2023-02-10T09:18:41;20.40;35.30
39969;DHT22;25648;47.808;19.004;2023-02-10T09:21:08;20.30;35.20
39969;DHT22;25648;47.808;19.004;2023-02-10T09:23:34;21.00;35.10
39969;DHT22;25648;47.808;19.004;2023-02-10T09:26:00;22.00;34.40
39969;DHT22;25648;47.808;19.004;2023-02-10T09:28:26;21.30;33.80
39969;DHT22;25648;47.808;19.004;2023-02-10T09:30:52;20.30;35.30
39969;DHT22;25648;47.808;19.004;2023-02-10T09:33:18;19.90;35.20
39969;DHT22;25648;47.808;19.004;2023-02-10T09:35:44;17.70;37.00
39969;DHT22;25648;47.808;19.004;2023-02-10T09:38:11;17.70;36.40
39969;DHT22;25648;47.808;19.004;2023-02-10T09:41:31;16.70;37.30
39969;DHT22;25648;47.808;19.004;2023-02-10T09:55:32;18.80;35.60
39969;DHT22;25648;47.808;19.004;2023-02-10T10:00:44;18.50;35.00
39969;DHT22;25648;47.808;19.004;2023-02-10T10:03:17;17.10;36.10
39969;DHT22;25648;47.808;19.004;2023-02-10T10:08:45;16.70;36.90
39969;DHT22;25648;47.808;19.004;2023-02-10T10:11:25;15.40;38.20
39969;DHT22;25648;47.808;19.004;2023-02-10T10:13:53;17.00;38.00
39969;DHT22;25648;47.808;19.004;2023-02-10T10:16:29;18.30;36.10
39969;DHT22;25648;47.808;19.004;2023-02-10T10:25:42;22.90;34.30
39969;DHT22;25648;47.808;19.004;2023-02-10T10:31:01;23.90;33.30
39969;DHT22;25648;47.808;19.004;2023-02-10T10:33:39;24.80;33.30
39969;DHT22;25648;47.808;19.004;2023-02-10T10:36:14;25.20;32.00
39969;DHT22;25648;47.808;19.004;2023-02-10T10:38:45;23.90;32.00
39969;DHT22;25648;47.808;19.004;2023-02-10T10:41:13;24.10;32.50
39969;DHT22;25648;47.808;19.004;2023-02-10T10:43:48;24.60;32.30
39969;DHT22;25648;47.808;19.004;2023-02-10T10:49:00;24.40;32.20
39969;DHT22;25648;47.808;19.004;2023-02-10T10:51:27;24.20;31.40
39969;DHT22;25648;47.808;19.004;2023-02-10T10:53:54;24.30;32.00
39969;DHT22;25648;47.808;19.004;2023-02-10T10:58:56;23.30;32.00
39969;DHT22;25648;47.808;19.004;2023-02-10T11:01:38;23.20;32.50
39969;DHT22;25648;47.808;19.004;2023-02-10T11:04:12;22.10;32.60
39969;DHT22;25648;47.808;19.004;2023-02-10T11:06:40;21.90;33.10
39969;DHT22;25648;47.808;19.004;2023-02-10T11:09:26;21.00;32.80
39969;DHT22;25648;47.808;19.004;2023-02-10T11:12:00;20.00;33.90
39969;DHT22;25648;47.808;19.004;2023-02-10T11:14:28;19.90;34.10
39969;DHT22;25648;47.808;19.004;2023-02-10T11:16:57;20.10;33.90
39969;DHT22;25648;47.808;19.004;2023-02-10T11:19:33;20.00;33.90
39969;DHT22;25648;47.808;19.004;2023-02-10T11:22:00;19.20;33.60
39969;DHT22;25648;47.808;19.004;2023-02-10T11:24:28;18.30;34.50
39969;DHT22;25648;47.808;19.004;2023-02-10T11:27:02;18.20;35.50
39969;DHT22;25648;47.808;19.004;2023-02-10T11:29:35;18.00;35.30
39969;DHT22;25648;47.808;19.004;2023-02-10T11:32:05;17.30;35.50
39969;DHT22;25648;47.808;19.004;2023-02-10T11:34:38;16.10;35.60
39969;DHT22;25648;47.808;19.004;2023-02-10T11:37:12;14.90;36.70
39969;DHT22;25648;47.808;19.004;2023-02-10T11:39:43;14.50;37.60
39969;DHT22;25648;47.808;19.004;2023-02-10T11:44:40;13.00;38.50
39969;DHT22;25648;47.808;19.004;2023-02-10T11:47:15;12.90;40.10
39969;DHT22;25648;47.808;19.004;2023-02-10T11:49:49;12.80;39.40
39969;DHT22;25648;47.808;19.004;2023-02-10T11:52:17;12.60;39.60
39969;DHT22;25648;47.808;19.004;2023-02-10T11:54:44;12.70;39.30
39969;DHT22;25648;47.808;19.004;2023-02-10T12:00:31;12.50;38.70
39969;DHT22;25648;47.808;19.004;2023-02-10T12:09:05;13.10;39.20
39969;DHT22;25648;47.808;19.004;2023-02-10T12:11:43;13.00;38.40
39969;DHT22;25648;47.808;19.004;2023-02-10T12:14:23;12.80;38.30
39969;DHT22;25648;47.808;19.004;2023-02-10T12:16:56;12.60;39.30
39969;DHT22;25648;47.808;19.004;2023-02-10T12:19:54;12.70;38.90
39969;DHT22;25648;47.808;19.004;2023-02-10T12:28:02;12.90;38.60
39969;DHT22;25648;47.808;19.004;2023-02-10T12:46:50;12.50;39.30
39969;DHT22;25648;47.808;19.004;2023-02-10T12:52:12;12.40;40.10
39969;DHT22;25648;47.808;19.004;2023-02-10T12:55:18;12.00;39.90
39969;DHT22;25648;47.808;19.004;2023-02-10T13:03:20;12.10;40.50
39969;DHT22;25648;47.808;19.004;2023-02-10T13:06:02;11.70;40.80
39969;DHT22;25648;47.808;19.004;2023-02-10T13:08:36;12.10;40.80
39969;DHT22;25648;47.808;19.004;2023-02-10T13:11:16;12.50;40.40
39969;DHT22;25648;47.808;19.004;2023-02-10T13:13:46;12.40;40.60
39969;DHT22;25648;47.808;19.004;2023-02-10T13:16:22;12.10;40.50
39969;DHT22;25648;47.808;19.004;2023-02-10T13:21:50;12.10;41.00
39969;DHT22;25648;47.808;19.004;2023-02-10T13:24:39;12.30;40.70
39969;DHT22;25648;47.808;19.004;2023-02-10T13:35:43;11.40;41.20
39969;DHT22;25648;47.808;19.004;2023-02-10T13:38:14;11.40;41.50
39969;DHT22;25648;47.808;19.004;2023-02-10T13:40:53;11.60;41.60
39969;DHT22;25648;47.808;19.004;2023-02-10T13:43:40;11.90;41.20
39969;DHT22;25648;47.808;19.004;2023-02-10T13:46:20;12.30;40.70
39969;DHT22;25648;47.808;19.004;2023-02-10T13:48:54;12.70;40.30
39969;DHT22;25648;47.808;19.004;2023-02-10T13:51:35;12.50;40.70
39969;DHT22;25648;47.808;19.004;2023-02-10T13:54:02;12.10;40.70
39969;DHT22;25648;47.808;19.004;2023-02-10T13:56:31;11.90;41.00
39969;DHT22;25648;47.808;19.004;2023-02-10T14:01:47;11.70;41.60
39969;DHT22;25648;47.808;19.004;2023-02-10T14:06:46;11.60;41.50
39969;DHT22;25648;47.808;19.004;2023-02-10T14:09:32;11.50;41.50
39969;DHT22;25648;47.808;19.004;2023-02-10T14:12:05;11.30;42.00
39969;DHT22;25648;47.808;19.004;2023-02-10T14:14:45;11.60;41.70
39969;DHT22;25648;47.808;19.004;2023-02-10T14:17:21;11.70;42.00
39969;DHT22;25648;47.808;19.004;2023-02-10T14:19:50;11.70;41.60
39969;DHT22;25648;47.808;19.004;2023-02-10T14:25:02;11.50;42.20
39969;DHT22;25648;47.808;19.004;2023-02-10T14:27:27;11.70;42.00
39969;DHT22;25648;47.808;19.004;2023-02-10T14:29:58;11.50;41.70
39969;DHT22;25648;47.808;19.004;2023-02-10T14:32:25;11.40;42.60
39969;DHT22;25648;47.808;19.004;2023-02-10T14:34:57;11.50;41.80
39969;DHT22;25648;47.808;19.004;2023-02-10T14:37:23;11.60;42.30
39969;DHT22;25648;47.808;19.004;2023-02-10T14:39:54;11.80;42.10
39969;DHT22;25648;47.808;19.004;2023-02-10T14:42:22;11.80;42.00
39969;DHT22;25648;47.808;19.004;2023-02-10T14:44:53;11.70;42.10
39969;DHT22;25648;47.808;19.004;2023-02-10T14:47:27;11.70;42.70
39969;DHT22;25648;47.808;19.004;2023-02-10T14:49:56;11.80;42.20
39969;DHT22;25648;47.808;19.004;2023-02-10T14:52:31;11.90;42.10
39969;DHT22;25648;47.808;19.004;2023-02-10T14:54:57;11.70;42.30
39969;DHT22;25648;47.808;19.004;2023-02-10T14:57:24;11.90;42.50
39969;DHT22;25648;47.808;19.004;2023-02-10T14:59:59;11.80;42.40
39969;DHT22;25648;47.808;19.004;2023-02-10T15:02:31;11.70;42.60
39969;DHT22;25648;47.808;19.004;2023-02-10T15:05:01;11.50;42.90
39969;DHT22;25648;47.808;19.004;2023-02-10T15:07:34;11.20;43.70
39969;DHT22;25648;47.808;19.004;2023-02-10T15:10:29;11.20;43.80
39969;DHT22;25648;47.808;19.004;2023-02-10T15:12:56;11.30;43.40
39969;DHT22;25648;47.808;19.004;2023-02-10T15:15:36;11.20;43.70
39969;DHT22;25648;47.808;19.004;2023-02-10T15:20:39;11.60;43.60
39969;DHT22;25648;47.808;19.004;2023-02-10T15:23:16;11.70;43.10
39969;DHT22;25648;47.808;19.004;2023-02-10T15:25:42;11.70;43.40
39969;DHT22;25648;47.808;19.004;2023-02-10T15:33:29;12.00;43.00
39969;DHT22;25648;47.808;19.004;2023-02-10T15:36:33;12.00;43.20
39969;DHT22;25648;47.808;19.004;2023-02-10T15:39:13;11.90;42.90
39969;DHT22;25648;47.808;19.004;2023-02-10T15:44:41;11.70;43.40
39969;DHT22;25648;47.808;19.004;2023-02-10T15:47:23;11.70;43.50
39969;DHT22;25648;47.808;19.004;2023-02-10T15:49:57;11.70;43.60
39969;DHT22;25648;47.808;19.004;2023-02-10T15:54:54;11.40;44.20
39969;DHT22;25648;47.808;19.004;2023-02-10T15:57:20;11.40;44.30
39969;DHT22;25648;47.808;19.004;2023-02-10T15:59:46;11.50;44.10
39969;DHT22;25648;47.808;19.004;2023-02-10T16:02:16;11.40;44.10
39969;DHT22;25648;47.808;19.004;2023-02-10T16:04:42;11.40;44.30
39969;DHT22;25648;47.808;19.004;2023-02-10T16:07:17;11.30;44.40
39969;DHT22;25648;47.808;19.004;2023-02-10T16:09:44;11.30;44.20
39969;DHT22;25648;47.808;19.004;2023-02-10T16:12:09;11.20;44.40
39969;DHT22;25648;47.808;19.004;2023-02-10T16:14:35;11.20;44.40
39969;DHT22;25648;47.808;19.004;2023-02-10T16:17:01;11.10;44.70
39969;DHT22;25648;47.808;19.004;2023-02-10T16:19:28;11.10;44.70
39969;DHT22;25648;47.808;19.004;2023-02-10T16:21:55;10.70;44.90
39969;DHT22;25648;47.808;19.004;2023-02-10T16:24:26;10.70;45.20
39969;DHT22;25648;47.808;19.004;2023-02-10T16:26:53;10.90;45.00
39969;DHT22;25648;47.808;19.004;2023-02-10T16:29:25;10.90;45.20
39969;DHT22;25648;47.808;19.004;2023-02-10T16:31:51;10.90;44.80
39969;DHT22;25648;47.808;19.004;2023-02-10T16:34:17;10.80;45.20
39969;DHT22;25648;47.808;19.004;2023-02-10T16:36:43;10.80;45.10
39969;DHT22;25648;47.808;19.004;2023-02-10T16:39:20;10.80;45.20
39969;DHT22;25648;47.808;19.004;2023-02-10T16:41:47;10.60;45.50
39969;DHT22;25648;47.808;19.004;2023-02-10T16:44:14;10.80;45.50
39969;DHT22;25648;47.808;19.004;2023-02-10T16:46:40;10.90;45.20
39969;DHT22;25648;47.808;19.004;2023-02-10T16:49:06;10.80;45.50
39969;DHT22;25648;47.808;19.004;2023-02-10T16:51:39;10.70;45.50
39969;DHT22;25648;47.808;19.004;2023-02-10T16:54:31;10.60;45.80
39969;DHT22;25648;47.808;19.004;2023-02-10T16:56:56;10.80;45.50
39969;DHT22;25648;47.808;19.004;2023-02-10T16:59:22;10.50;46.00
39969;DHT22;25648;47.808;19.004;2023-02-10T17:01:48;10.40;46.30
39969;DHT22;25648;47.808;19.004;2023-02-10T17:04:13;10.20;46.20
39969;DHT22;25648;47.808;19.004;2023-02-10T17:06:43;10.20;46.70
39969;DHT22;25648;47.808;19.004;2023-02-10T17:09:18;10.20;46.30
39969;DHT22;25648;47.808;19.004;2023-02-10T17:11:44;10.20;46.30
39969;DHT22;25648;47.808;19.004;2023-02-10T17:14:10;10.20;46.20
39969;DHT22;25648;47.808;19.004;2023-02-10T17:16:37;10.40;46.20
39969;DHT22;25648;47.808;19.004;2023-02-10T17:19:05;10.50;46.00
39969;DHT22;25648;47.808;19.004;2023-02-10T17:21:32;10.70;45.90
39969;DHT22;25648;47.808;19.004;2023-02-10T17:23:58;10.70;45.50
39969;DHT22;25648;47.808;19.004;2023-02-10T17:26:24;10.80;45.30
39969;DHT22;25648;47.808;19.004;2023-02-10T17:28:50;10.40;45.80
39969;DHT22;25648;47.808;19.004;2023-02-10T17:31:18;10.40;46.10
39969;DHT22;25648;47.808;19.004;2023-02-10T17:33:47;10.40;46.00
39969;DHT22;25648;47.808;19.004;2023-02-10T17:36:20;10.40;46.00
39969;DHT22;25648;47.808;19.004;2023-02-10T17:38:47;10.50;46.10
39969;DHT22;25648;47.808;19.004;2023-02-10T17:41:15;10.10;46.10
39969;DHT22;25648;47.808;19.004;2023-02-10T17:43:41;10.00;46.80
39969;DHT22;25648;47.808;19.004;2023-02-10T17:46:10;10.10;46.50
39969;DHT22;25648;47.808;19.004;2023-02-10T17:48:35;10.20;46.80
39969;DHT22;25648;47.808;19.004;2023-02-10T17:51:11;10.00;46.80
39969;DHT22;25648;47.808;19.004;2023-02-10T17:53:37;10.00;46.80
39969;DHT22;25648;47.808;19.004;2023-02-10T17:56:03;10.10;46.60
39969;DHT22;25648;47.808;19.004;2023-02-10T17:58:30;10.20;46.60
39969;DHT22;25648;47.808;19.004;2023-02-10T18:00:56;10.00;46.80
39969;DHT22;25648;47.808;19.004;2023-02-10T18:03:22;9.50;47.40
39969;DHT22;25648;47.808;19.004;2023-02-10T18:05:51;9.00;48.20
39969;DHT22;25648;47.808;19.004;2023-02-10T18:08:24;9.00;48.50
39969;DHT22;25648;47.808;19.004;2023-02-10T18:10:50;9.10;48.50
39969;DHT22;25648;47.808;19.004;2023-02-10T18:13:16;9.10;48.60
39969;DHT22;25648;47.808;19.004;2023-02-10T18:15:42;9.10;48.50
39969;DHT22;25648;47.808;19.004;2023-02-10T18:18:11;8.70;48.90
39969;DHT22;25648;47.808;19.004;2023-02-10T18:21:04;8.40;49.60
39969;DHT22;25648;47.808;19.004;2023-02-10T18:23:45;8.50;49.60
39969;DHT22;25648;47.808;19.004;2023-02-10T18:26:39;8.80;49.50
39969;DHT22;25648;47.808;19.004;2023-02-10T18:29:04;8.90;49.20
39969;DHT22;25648;47.808;19.004;2023-02-10T18:31:30;9.00;48.80
39969;DHT22;25648;47.808;19.004;2023-02-10T18:33:58;8.90;48.90
39969;DHT22;25648;47.808;19.004;2023-02-10T18:36:24;8.70;49.10
39969;DHT22;25648;47.808;19.004;2023-02-10T18:38:49;8.40;49.50
39969;DHT22;25648;47.808;19.004;2023-02-10T18:41:16;8.40;50.10
39969;DHT22;25648;47.808;19.004;2023-02-10T18:43:42;8.30;50.60
39969;DHT22;25648;47.808;19.004;2023-02-10T18:46:07;8.50;50.10
39969;DHT22;25648;47.808;19.004;2023-02-10T18:48:33;8.70;49.70
39969;DHT22;25648;47.808;19.004;2023-02-10T18:54:20;9.10;48.90
39969;DHT22;25648;47.808;19.004;2023-02-10T18:56:46;8.90;49.10
39969;DHT22;25648;47.808;19.004;2023-02-10T18:59:11;8.80;49.30
39969;DHT22;25648;47.808;19.004;2023-02-10T19:01:37;8.80;49.60
39969;DHT22;25648;47.808;19.004;2023-02-10T19:06:29;8.80;49.80
39969;DHT22;25648;47.808;19.004;2023-02-10T19:11:39;8.70;49.20
39969;DHT22;25648;47.808;19.004;2023-02-10T19:14:05;8.70;48.70
39969;DHT22;25648;47.808;19.004;2023-02-10T19:16:32;8.80;48.70
39969;DHT22;25648;47.808;19.004;2023-02-10T19:18:59;8.70;48.90
39969;DHT22;25648;47.808;19.004;2023-02-10T19:21:24;8.60;49.10
39969;DHT22;25648;47.808;19.004;2023-02-10T19:23:50;8.30;49.00
39969;DHT22;25648;47.808;19.004;2023-02-10T19:26:16;8.50;49.10
39969;DHT22;25648;47.808;19.004;2023-02-10T19:28:42;8.50;48.70
39969;DHT22;25648;47.808;19.004;2023-02-10T19:31:12;8.50;49.10
39969;DHT22;25648;47.808;19.004;2023-02-10T19:33:39;8.60;49.00
39969;DHT22;25648;47.808;19.004;2023-02-10T19:36:09;8.70;48.70
39969;DHT22;25648;47.808;19.004;2023-02-10T19:38:35;8.60;48.90
39969;DHT22;25648;47.808;19.004;2023-02-10T19:41:07;8.80;48.60
39969;DHT22;25648;47.808;19.004;2023-02-10T19:43:33;8.80;48.90
39969;DHT22;25648;47.808;19.004;2023-02-10T19:45:59;8.90;48.60
39969;DHT22;25648;47.808;19.004;2023-02-10T19:48:24;8.80;48.60
39969;DHT22;25648;47.808;19.004;2023-02-10T19:50:52;8.70;49.20
39969;DHT22;25648;47.808;19.004;2023-02-10T19:53:19;8.70;48.90
39969;DHT22;25648;47.808;19.004;2023-02-10T19:55:45;8.90;48.60
39969;DHT22;25648;47.808;19.004;2023-02-10T19:58:11;9.00;48.30
39969;DHT22;25648;47.808;19.004;2023-02-10T20:00:37;8.90;48.40
39969;DHT22;25648;47.808;19.004;2023-02-10T20:03:28;8.80;48.60
39969;DHT22;25648;47.808;19.004;2023-02-10T20:09:39;8.80;48.30
39969;DHT22;25648;47.808;19.004;2023-02-10T20:15:27;8.60;48.90
39969;DHT22;25648;47.808;19.004;2023-02-10T20:20:34;8.50;49.40
39969;DHT22;25648;47.808;19.004;2023-02-10T20:25:43;8.10;49.20
39969;DHT22;25648;47.808;19.004;2023-02-10T20:28:12;8.30;49.30
39969;DHT22;25648;47.808;19.004;2023-02-10T20:30:38;8.40;49.20
39969;DHT22;25648;47.808;19.004;2023-02-10T20:33:04;8.40;48.80
39969;DHT22;25648;47.808;19.004;2023-02-10T20:35:33;8.20;49.30
39969;DHT22;25648;47.808;19.004;2023-02-10T20:38:14;8.30;49.50
39969;DHT22;25648;47.808;19.004;2023-02-10T20:40:43;8.30;49.30
39969;DHT22;25648;47.808;19.004;2023-02-10T20:43:08;8.30;49.10
39969;DHT22;25648;47.808;19.004;2023-02-10T20:45:34;8.30;49.50
39969;DHT22;25648;47.808;19.004;2023-02-10T20:48:00;8.50;49.10
39969;DHT22;25648;47.808;19.004;2023-02-10T20:50:28;8.70;48.70
39969;DHT22;25648;47.808;19.004;2023-02-10T20:52:54;8.70;48.90
39969;DHT22;25648;47.808;19.004;2023-02-10T20:55:20;8.80;48.80
39969;DHT22;25648;47.808;19.004;2023-02-10T20:57:46;8.90;48.60
39969;DHT22;25648;47.808;19.004;2023-02-10T21:00:13;9.10;48.50
39969;DHT22;25648;47.808;19.004;2023-02-10T21:02:38;9.20;48.20
39969;DHT22;25648;47.808;19.004;2023-02-10T21:31:58;8.40;49.00
39969;DHT22;25648;47.808;19.004;2023-02-10T21:37:39;8.40;49.00
39969;DHT22;25648;47.808;19.004;2023-02-10T21:40:05;8.20;49.40
39969;DHT22;25648;47.808;19.004;2023-02-10T21:42:31;8.20;49.40
39969;DHT22;25648;47.808;19.004;2023-02-10T21:44:57;8.30;49.10
39969;DHT22;25648;47.808;19.004;2023-02-10T21:47:23;8.10;49.60
39969;DHT22;25648;47.808;19.004;2023-02-10T21:49:49;8.10;50.00
39969;DHT22;25648;47.808;19.004;2023-02-10T21:52:14;8.20;50.30
39969;DHT22;25648;47.808;19.004;2023-02-10T21:58:04;8.40;49.70
39969;DHT22;25648;47.808;19.004;2023-02-10T22:03:48;8.20;49.90
39969;DHT22;25648;47.808;19.004;2023-02-10T22:06:14;8.20;49.80
39969;DHT22;25648;47.808;19.004;2023-02-10T22:11:43;8.20;49.90
39969;DHT22;25648;47.808;19.004;2023-02-10T22:14:13;7.90;50.60
39969;DHT22;25648;47.808;19.004;2023-02-10T22:30:15;7.80;50.60
39969;DHT22;25648;47.808;19.004;2023-02-10T22:32:41;7.90;50.40
39969;DHT22;25648;47.808;19.004;2023-02-10T22:35:07;8.20;50.00
39969;DHT22;25648;47.808;19.004;2023-02-10T22:37:33;8.20;50.10
39969;DHT22;25648;47.808;19.004;2023-02-10T22:40:06;8.10;50.00
39969;DHT22;25648;47.808;19.004;2023-02-10T22:42:32;8.20;50.10
39969;DHT22;25648;47.808;19.004;2023-02-10T22:44:58;8.30;49.70
39969;DHT22;25648;47.808;19.004;2023-02-10T22:47:23;8.40;49.60